Ladysmith, Wisconsin
Current Conditions -  °F | °C
As of 1:55 PM on Wednesday 26 Nov 2014 (Local Time) from KRCX Reporting Station
Light Snow Light Snow  
Wind Chill: 17°   Ceiling: 1200
Heat Index: 25°   Visibility: 1.7mi
Dew Point: 21°   Wind: 7mph
Humidity: 84%   Direction: 330°NNW
Pressure: 30.16"   Gusts: NA
Location:  45.46°N, 91.1°W
Report Text: KRCX 261955Z AUTO 33006KT 1 3/4SM -SN BKN012 OVC020 M04/M06 A3016 RMK AO2 T10381061
Loading
Personal Weather Stations






























Interactive Weather Map New forecast layout! Learn more

10-Day Weather Forecast

Advertisements
Track Severe Weather on mobile